createdAt,value
2019-04-03T00:00:12.531Z,92837.59
2019-04-03T00:02:41.043Z,92833.17
2019-04-03T00:05:09.485Z,92833.05
2019-04-03T00:07:37.975Z,92823.74
2019-04-03T00:10:07.658Z,92828.97
2019-04-03T00:12:36.957Z,92824.17
2019-04-03T00:15:06.473Z,92827.36
2019-04-03T00:17:34.959Z,92826.81
2019-04-03T00:20:05.470Z,92823.67
2019-04-03T00:22:33.859Z,92825.80
2019-04-03T00:25:02.338Z,92826.22
2019-04-03T00:27:30.703Z,92823.88
2019-04-03T00:29:59.314Z,92819.08
2019-04-03T00:32:27.880Z,92811.07
2019-04-03T00:34:56.283Z,92812.22
2019-04-03T00:37:24.959Z,92809.92
2019-04-03T00:39:54.515Z,92807.44
2019-04-03T00:42:24.548Z,92808.73
2019-04-03T00:44:54.717Z,92811.53
2019-04-03T00:47:25.123Z,92810.64
2019-04-03T00:49:56.102Z,92809.61
2019-04-03T00:52:23.723Z,92803.20
2019-04-03T00:54:52.209Z,92802.48
2019-04-03T00:57:20.688Z,92800.30
2019-04-03T00:59:49.089Z,92794.98
2019-04-03T01:02:17.576Z,92799.27
2019-04-03T01:04:46.035Z,92798.84
2019-04-03T01:07:14.593Z,92795.12
2019-04-03T01:09:43.016Z,92791.98
2019-04-03T01:12:11.526Z,92789.66
2019-04-03T01:14:39.981Z,92794.69
2019-04-03T01:17:08.399Z,92793.30
2019-04-03T01:19:37.108Z,92789.09
2019-04-03T01:22:07.274Z,92786.89
2019-04-03T01:24:36.774Z,92782.95
2019-04-03T01:27:06.627Z,92777.36
2019-04-03T01:29:35.056Z,92781.28
2019-04-03T01:32:03.684Z,92779.74
2019-04-03T01:34:32.025Z,92767.09
2019-04-03T01:37:00.442Z,92769.56
2019-04-03T01:39:29.015Z,92762.12
2019-04-03T01:41:57.392Z,92761.99
2019-04-03T01:44:25.853Z,92752.08
2019-04-03T01:46:54.456Z,92752.80
2019-04-03T01:49:24.266Z,92755.44
2019-04-03T01:51:52.727Z,92750.05
2019-04-03T01:54:21.145Z,92752.67
2019-04-03T01:56:49.656Z,92746.69
2019-04-03T01:59:18.152Z,92743.63
2019-04-03T02:01:46.592Z,92741.88
2019-04-03T02:04:15.090Z,92744.34
2019-04-03T02:06:44.292Z,92745.66
2019-04-03T02:09:15.402Z,92745.36
2019-04-03T02:11:43.294Z,92738.01
2019-04-03T02:14:11.675Z,92738.69
2019-04-03T02:16:40.124Z,92734.31
2019-04-03T02:19:08.552Z,92736.48
2019-04-03T02:21:37.042Z,92734.88
2019-04-03T02:24:05.790Z,92730.83
2019-04-03T02:26:34.236Z,92729.91
2019-04-03T02:29:04.401Z,92727.27
2019-04-03T02:31:33.008Z,92724.65
2019-04-03T02:34:02.615Z,92729.73
2019-04-03T02:36:31.663Z,92730.03
2019-04-03T02:39:00.099Z,92719.67
2019-04-03T02:41:28.549Z,92715.30
2019-04-03T02:43:57.298Z,92716.04
2019-04-03T02:46:28.154Z,92713.13
2019-04-03T02:48:56.080Z,92712.37
2019-04-03T02:51:24.863Z,92709.01
2019-04-03T02:53:53.522Z,92712.17
2019-04-03T02:56:22.149Z,92709.25
2019-04-03T02:58:53.368Z,92713.02
2019-04-03T03:01:20.905Z,92711.45
2019-04-03T03:03:50.211Z,92710.80
2019-04-03T03:06:19.589Z,92706.94
2019-04-03T03:08:48.375Z,92713.18
2019-04-03T03:11:17.011Z,92712.81
2019-04-03T03:13:45.868Z,92712.45
2019-04-03T03:16:17.342Z,92710.25
2019-04-03T03:18:44.708Z,92705.52
2019-04-03T03:21:14.466Z,92702.46
2019-04-03T03:23:42.952Z,92703.11
2019-04-03T03:26:12.101Z,92705.02
2019-04-03T03:28:45.705Z,92702.66
2019-04-03T03:31:12.709Z,92696.31
2019-04-03T03:33:42.294Z,92698.02
2019-04-03T03:36:15.286Z,92702.23
2019-04-03T03:38:41.831Z,92690.28
2019-04-03T03:41:10.504Z,92691.45
2019-04-03T03:43:39.282Z,92685.30
2019-04-03T03:46:08.013Z,92682.84
2019-04-03T03:48:37.631Z,92684.29
2019-04-03T03:51:07.472Z,92673.94
2019-04-03T03:53:36.744Z,92667.39
2019-04-03T03:56:06.223Z,92665.22
2019-04-03T03:58:34.959Z,92663.20
2019-04-03T04:01:03.542Z,92655.46
2019-04-03T04:03:32.671Z,92648.30
2019-04-03T04:06:01.340Z,92658.00
2019-04-03T04:08:30.785Z,92657.56
2019-04-03T04:10:59.943Z,92650.45
2019-04-03T04:13:28.892Z,92646.23
2019-04-03T04:15:57.606Z,92646.23
2019-04-03T04:18:26.819Z,92646.06
2019-04-03T04:20:55.348Z,92644.60
2019-04-03T04:23:25.226Z,92633.13
2019-04-03T04:25:54.075Z,92631.36
2019-04-03T04:28:22.849Z,92628.55
2019-04-03T04:30:52.111Z,92634.18
2019-04-03T04:33:20.825Z,92630.96
2019-04-03T04:35:51.676Z,92642.02
2019-04-03T04:38:19.900Z,92638.16
2019-04-03T04:40:48.395Z,92635.95
2019-04-03T04:43:16.837Z,92641.34
2019-04-03T04:45:45.329Z,92635.95
2019-04-03T04:48:16.175Z,92629.66
2019-04-03T04:50:44.064Z,92629.92
2019-04-03T04:53:12.452Z,92625.23
2019-04-03T04:55:40.983Z,92624.66
2019-04-03T04:58:11.263Z,92625.56
2019-04-03T05:00:39.541Z,92627.44
2019-04-03T05:03:07.969Z,92635.65
2019-04-03T05:05:36.481Z,92626.41
2019-04-03T05:08:05.035Z,92628.78
2019-04-03T05:10:36.412Z,92630.16
2019-04-03T05:13:03.888Z,92625.53
2019-04-03T05:15:32.612Z,92621.64
2019-04-03T05:18:01.207Z,92621.34
2019-04-03T05:20:29.579Z,92628.07
2019-04-03T05:22:58.101Z,92617.80
2019-04-03T05:25:27.864Z,92612.16
2019-04-03T05:27:57.017Z,92610.63
2019-04-03T05:30:30.354Z,92608.34
2019-04-03T05:32:59.694Z,92607.55
2019-04-03T05:35:28.359Z,92601.41
2019-04-03T05:37:56.882Z,92593.67
2019-04-03T05:40:26.226Z,92596.61
2019-04-03T05:42:55.011Z,92601.21
2019-04-03T05:45:23.521Z,92603.95
2019-04-03T05:47:52.174Z,92604.92
2019-04-03T05:50:20.714Z,92611.84
2019-04-03T05:52:49.299Z,92608.41
2019-04-03T05:55:17.919Z,92608.34
2019-04-03T05:57:46.723Z,92607.17
2019-04-03T06:00:15.534Z,92607.80
2019-04-03T06:02:44.174Z,92610.36
2019-04-03T06:05:13.218Z,92611.80
2019-04-03T06:07:41.764Z,92605.94
2019-04-03T06:10:10.514Z,92606.53
2019-04-03T06:12:39.008Z,92598.66
2019-04-03T06:15:09.813Z,92597.52
2019-04-03T06:17:38.413Z,92597.53
2019-04-03T06:20:10.513Z,92594.46
2019-04-03T06:22:37.759Z,92593.83
2019-04-03T06:25:07.301Z,92594.98
2019-04-03T06:27:36.429Z,92601.12
2019-04-03T06:30:06.993Z,92593.03
2019-04-03T06:32:35.480Z,92588.25
2019-04-03T06:35:04.249Z,92587.55
2019-04-03T06:37:32.670Z,92588.73
2019-04-03T06:40:02.927Z,92586.41
2019-04-03T06:42:33.843Z,92589.88
2019-04-03T06:45:02.256Z,92578.23
2019-04-03T06:47:32.197Z,92578.34
2019-04-03T06:50:00.990Z,92569.78
2019-04-03T06:52:29.385Z,92567.78
2019-04-03T06:54:57.827Z,92569.36
2019-04-03T06:57:26.501Z,92565.31
2019-04-03T06:59:54.862Z,92568.62
2019-04-03T07:02:23.712Z,92558.97
2019-04-03T07:04:52.356Z,92557.59
2019-04-03T07:07:32.049Z,92547.88
2019-04-03T07:09:51.319Z,92551.20
2019-04-03T07:12:19.922Z,92560.28
2019-04-03T07:14:48.396Z,92560.73
2019-04-03T07:17:16.842Z,92558.77
2019-04-03T07:19:45.273Z,92566.41
2019-04-03T07:22:13.757Z,92569.62
2019-04-03T07:24:42.268Z,92575.17
2019-04-03T07:27:10.760Z,92573.45
2019-04-03T07:29:40.166Z,92583.42
2019-04-03T07:32:08.645Z,92586.67
2019-04-03T07:34:37.086Z,92596.27
2019-04-03T07:37:05.659Z,92599.63
2019-04-03T07:39:34.105Z,92596.00
2019-04-03T07:42:02.707Z,92591.02
2019-04-03T07:44:31.595Z,92587.25
2019-04-03T07:47:00.107Z,92584.06
2019-04-03T07:49:28.533Z,92587.55
2019-04-03T07:51:57.051Z,92586.68
2019-04-03T07:54:26.759Z,92588.86
2019-04-03T07:56:57.417Z,92592.64
2019-04-03T07:59:26.105Z,92594.52
2019-04-03T08:01:54.597Z,92597.14
2019-04-03T08:04:25.102Z,92598.16
2019-04-03T08:06:53.512Z,92600.86
2019-04-03T08:09:21.986Z,92596.52
2019-04-03T08:11:50.455Z,92601.23
2019-04-03T08:14:19.706Z,92601.38
2019-04-03T08:16:49.857Z,92599.63
2019-04-03T08:19:18.310Z,92600.06
2019-04-03T08:21:46.938Z,92597.14
2019-04-03T08:24:15.465Z,92597.89
2019-04-03T08:26:44.046Z,92593.67
2019-04-03T08:29:12.443Z,92597.44
2019-04-03T08:31:44.234Z,92594.38
2019-04-03T08:34:16.628Z,92594.09
2019-04-03T08:36:41.189Z,92595.27
2019-04-03T08:39:10.649Z,92588.57
2019-04-03T08:41:39.162Z,92583.59
2019-04-03T08:44:08.999Z,92588.42
2019-04-03T08:46:37.808Z,92585.59
2019-04-03T08:49:06.382Z,92576.55
2019-04-03T08:51:34.998Z,92584.48
2019-04-03T08:54:03.665Z,92578.19
2019-04-03T08:56:32.260Z,92578.95
2019-04-03T08:59:00.695Z,92572.05
2019-04-03T09:01:29.281Z,92565.15
2019-04-03T09:03:57.717Z,92567.94
2019-04-03T09:06:26.149Z,92550.50
2019-04-03T09:08:57.270Z,92540.90
2019-04-03T09:11:24.897Z,92537.95
2019-04-03T09:13:54.854Z,92532.74
2019-04-03T09:16:23.679Z,92534.66
2019-04-03T09:18:52.376Z,92530.42
2019-04-03T09:21:20.903Z,92526.24
2019-04-03T09:23:49.501Z,92526.98
2019-04-03T09:26:17.945Z,92519.80
2019-04-03T09:28:46.435Z,92518.69
2019-04-03T09:31:14.893Z,92512.02
2019-04-03T09:33:43.304Z,92516.25
2019-04-03T09:36:11.800Z,92510.06
2019-04-03T09:38:41.759Z,92509.22
2019-04-03T09:41:10.319Z,92502.58
2019-04-03T09:43:40.103Z,92494.23
2019-04-03T09:46:08.926Z,92496.20
2019-04-03T09:48:37.951Z,92490.72
2019-04-03T09:51:09.159Z,92489.97
2019-04-03T09:53:36.670Z,92490.48
2019-04-03T09:56:08.074Z,92484.66
2019-04-03T09:58:36.268Z,92479.72
2019-04-03T10:01:05.559Z,92480.72
2019-04-03T10:03:34.085Z,92471.66
2019-04-03T10:06:02.815Z,92473.32
2019-04-03T10:08:31.749Z,92467.93
2019-04-03T10:11:00.268Z,92462.66
2019-04-03T10:13:29.116Z,92452.92
2019-04-03T10:15:57.525Z,92450.50
2019-04-03T10:18:26.081Z,92452.52
2019-04-03T10:20:54.504Z,92444.53
2019-04-03T10:23:23.395Z,92443.41
2019-04-03T10:25:53.542Z,92432.25
2019-04-03T10:28:22.123Z,92422.27
2019-04-03T10:30:53.176Z,92413.59
2019-04-03T10:33:20.723Z,92404.75
2019-04-03T10:35:49.323Z,92391.94
2019-04-03T10:38:18.935Z,92390.06
2019-04-03T10:40:47.755Z,92386.37
2019-04-03T10:43:16.520Z,92371.61
2019-04-03T10:45:45.408Z,92361.84
2019-04-03T10:48:13.862Z,92365.53
2019-04-03T10:50:42.660Z,92366.77
2019-04-03T10:53:11.247Z,92367.84
2019-04-03T10:55:40.129Z,92356.56
2019-04-03T10:58:09.144Z,92354.75
2019-04-03T11:00:38.254Z,92342.98
2019-04-03T11:03:06.760Z,92339.33
2019-04-03T11:05:35.307Z,92337.46
2019-04-03T11:08:03.959Z,92340.14
2019-04-03T11:10:32.406Z,92334.28
2019-04-03T11:13:03.264Z,92327.41
2019-04-03T11:15:31.376Z,92321.57
2019-04-03T11:17:59.844Z,92319.20
2019-04-03T11:20:28.469Z,92322.12
2019-04-03T11:25:27.212Z,92314.36
2019-04-03T11:27:56.301Z,92303.44
2019-04-03T11:30:25.794Z,92306.16
2019-04-03T11:30:54.597Z,92322.23
2019-04-03T11:32:54.381Z,92301.72
2019-04-03T11:35:22.962Z,92302.17
2019-04-03T11:37:51.729Z,92294.46
2019-04-03T11:40:20.527Z,92296.48
2019-04-03T11:42:50.790Z,92300.98
2019-04-03T11:45:19.550Z,92295.20
2019-04-03T11:47:48.073Z,92289.00
2019-04-03T11:50:18.042Z,92278.20
2019-04-03T11:52:46.659Z,92275.28
2019-04-03T11:55:15.547Z,92274.74
2019-04-03T11:57:44.141Z,92268.11
2019-04-03T12:00:15.583Z,92267.05
2019-04-03T12:02:44.755Z,92266.53
2019-04-03T12:05:19.768Z,92261.78
2019-04-03T12:07:45.954Z,92267.08
2019-04-03T12:10:15.130Z,92265.23
2019-04-03T12:12:43.785Z,92267.63
2019-04-03T12:15:16.084Z,92263.65
2019-04-03T12:17:43.827Z,92250.41
2019-04-03T12:20:15.165Z,92255.45
2019-04-03T12:22:42.975Z,92254.37
2019-04-03T12:25:11.619Z,92248.80
2019-04-03T12:27:40.383Z,92239.55
2019-04-03T12:30:10.403Z,92241.14
2019-04-03T12:32:43.506Z,92231.58
2019-04-03T12:35:10.901Z,92228.92
2019-04-03T12:37:39.613Z,92225.28
2019-04-03T12:40:09.247Z,92223.69
2019-04-03T12:42:38.159Z,92217.36
2019-04-03T12:45:07.464Z,92204.94
2019-04-03T12:47:36.177Z,92200.95
2019-04-03T12:50:07.511Z,92193.02
2019-04-03T12:52:36.606Z,92185.02
2019-04-03T12:55:07.463Z,92174.77
2019-04-03T12:57:38.815Z,92181.33
2019-04-03T13:00:11.684Z,92174.42
2019-04-03T13:02:40.130Z,92188.65
2019-04-03T13:05:09.891Z,92175.73
2019-04-03T13:07:38.437Z,92159.59
2019-04-03T13:10:11.428Z,92143.95
2019-04-03T13:12:40.267Z,92161.31
2019-04-03T13:15:11.488Z,92161.12
2019-04-03T13:17:43.466Z,92170.92
2019-04-03T13:20:11.599Z,92167.52
2019-04-03T13:22:42.566Z,92159.61
2019-04-03T13:25:10.754Z,92167.54
2019-04-03T13:27:39.670Z,92161.45
2019-04-03T13:30:11.926Z,92156.05
2019-04-03T13:32:41.025Z,92152.11
2019-04-03T13:35:10.480Z,92134.13
2019-04-03T13:37:38.998Z,92123.81
2019-04-03T13:40:09.294Z,92126.21
2019-04-03T13:42:37.925Z,92117.31
2019-04-03T13:45:09.798Z,92114.36
2019-04-03T13:47:41.502Z,92110.03
2019-04-03T13:50:09.852Z,92119.43
2019-04-03T13:52:42.451Z,92120.86
2019-04-03T13:55:08.946Z,92118.20
2019-04-03T13:57:37.623Z,92113.59
2019-04-03T14:00:18.730Z,92115.73
2019-04-03T14:02:38.629Z,92121.92
2019-04-03T14:05:08.936Z,92127.56
2019-04-03T14:07:40.473Z,92128.88
2019-04-03T14:10:09.888Z,92139.60
2019-04-03T14:12:42.969Z,92145.25
2019-04-03T14:15:09.691Z,92138.69
2019-04-03T14:17:39.754Z,92125.16
2019-04-03T14:20:09.941Z,92114.17
2019-04-03T14:22:38.639Z,92116.20
2019-04-03T14:25:19.936Z,92118.03
2019-04-03T14:27:40.756Z,92125.91
2019-04-03T14:30:11.785Z,92120.92
2019-04-03T14:32:40.599Z,92123.24
2019-04-03T14:35:40.489Z,92123.58
2019-04-03T14:37:40.007Z,92136.17
2019-04-03T14:40:12.263Z,92148.55
2019-04-03T14:42:39.605Z,92153.08
2019-04-03T14:45:09.053Z,92165.34
2019-04-03T14:47:37.582Z,92163.63
2019-04-03T14:50:10.121Z,92181.58
2019-04-03T14:52:38.611Z,92195.35
2019-04-03T14:55:18.167Z,92204.20
2019-04-03T14:57:38.220Z,92222.31
2019-04-03T15:00:23.927Z,92238.84
2019-04-03T15:02:41.054Z,92239.63
2019-04-03T15:05:10.028Z,92246.51
2019-04-03T15:07:38.654Z,92252.90
2019-04-03T15:10:07.582Z,92259.61
2019-04-03T15:12:38.592Z,92275.21
2019-04-03T15:15:08.147Z,92285.15
2019-04-03T15:17:37.861Z,92302.41
2019-04-03T15:20:08.714Z,92318.02
2019-04-03T15:22:37.234Z,92326.28
2019-04-03T15:25:06.440Z,92327.42
2019-04-03T15:27:35.082Z,92328.40
2019-04-03T15:30:05.048Z,92321.52
2019-04-03T15:32:34.226Z,92310.71
2019-04-03T15:35:02.921Z,92329.62
2019-04-03T15:37:31.492Z,92339.53
2019-04-03T15:39:59.893Z,92331.77
2019-04-03T15:42:28.491Z,92328.06
2019-04-03T15:44:57.796Z,92327.47
2019-04-03T15:47:35.221Z,92338.56
2019-04-03T15:49:58.769Z,92341.96
2019-04-03T15:52:26.684Z,92331.14
2019-04-03T15:54:55.420Z,92329.67
2019-04-03T15:57:24.386Z,92337.80
2019-04-03T15:59:53.350Z,92332.97
2019-04-03T16:02:21.946Z,92340.14
2019-04-03T16:04:50.409Z,92342.69
2019-04-03T16:07:18.805Z,92339.48
2019-04-03T16:09:49.553Z,92349.77
2019-04-03T16:12:17.848Z,92349.88
2019-04-03T16:14:46.850Z,92348.69
2019-04-03T16:17:15.571Z,92361.72
2019-04-03T16:19:45.085Z,92354.70
2019-04-03T16:22:13.785Z,92365.00
2019-04-03T16:24:44.296Z,92371.32
2019-04-03T16:27:12.822Z,92383.11
2019-04-03T16:29:41.877Z,92384.41
2019-04-03T16:32:10.419Z,92371.09
2019-04-03T16:34:41.849Z,92348.02
2019-04-03T16:37:09.417Z,92348.28
2019-04-03T16:39:37.994Z,92360.03
2019-04-03T16:42:06.622Z,92363.22
2019-04-03T16:44:35.547Z,92374.95
2019-04-03T16:47:04.160Z,92366.63
2019-04-03T16:49:32.617Z,92344.31
2019-04-03T16:52:03.479Z,92356.18
2019-04-03T16:54:33.043Z,92360.98
2019-04-03T16:57:03.729Z,92357.09
2019-04-03T16:59:35.355Z,92359.28
2019-04-03T17:02:02.681Z,92347.51
2019-04-03T17:04:31.194Z,92346.30
2019-04-03T17:06:59.714Z,92350.71
2019-04-03T17:09:28.231Z,92360.69
2019-04-03T17:11:56.730Z,92361.61
2019-04-03T17:14:25.730Z,92344.20
2019-04-03T17:16:54.206Z,92345.99
2019-04-03T17:19:22.617Z,92349.50
2019-04-03T17:21:51.470Z,92338.30
2019-04-03T17:24:20.016Z,92345.91
2019-04-03T17:26:53.917Z,92348.10
2019-04-03T17:29:18.834Z,92335.39
2019-04-03T17:31:47.322Z,92346.08
2019-04-03T17:34:15.932Z,92344.28
2019-04-03T17:36:44.484Z,92326.27
2019-04-03T17:39:13.477Z,92327.08
2019-04-03T17:41:41.976Z,92349.27
2019-04-03T17:44:12.021Z,92340.17
2019-04-03T17:46:40.724Z,92350.88
2019-04-03T17:49:09.208Z,92361.08
2019-04-03T17:51:37.762Z,92360.88
2019-04-03T17:54:07.770Z,92357.45
2019-04-03T17:56:36.564Z,92347.36
2019-04-03T17:59:05.110Z,92355.84
2019-04-03T18:01:33.690Z,92359.27
2019-04-03T18:04:02.127Z,92356.67
2019-04-03T18:06:30.670Z,92359.45
2019-04-03T18:08:59.203Z,92349.83
2019-04-03T18:11:27.724Z,92350.87
2019-04-03T18:13:56.154Z,92348.44
2019-04-03T18:16:24.583Z,92347.27
2019-04-03T18:18:53.010Z,92370.25
2019-04-03T18:21:21.534Z,92376.75
2019-04-03T18:23:52.605Z,92373.31
2019-04-03T18:26:20.241Z,92381.30
2019-04-03T18:28:48.735Z,92385.16
2019-04-03T18:31:17.286Z,92382.98
2019-04-03T18:33:46.827Z,92384.59
2019-04-03T18:36:16.032Z,92386.92
2019-04-03T18:38:44.609Z,92383.95
2019-04-03T18:41:13.113Z,92377.79
2019-04-03T18:43:41.590Z,92381.66
2019-04-03T18:46:10.106Z,92374.92
2019-04-03T18:48:38.547Z,92372.59
2019-04-03T18:51:07.040Z,92379.28
2019-04-03T18:53:35.545Z,92365.48
2019-04-03T18:56:04.156Z,92381.52
2019-04-03T18:58:32.593Z,92379.28
2019-04-03T19:01:01.802Z,92383.45
2019-04-03T19:03:30.865Z,92392.67
2019-04-03T19:05:59.950Z,92395.70
2019-04-03T19:08:28.539Z,92392.83
2019-04-03T19:11:02.705Z,92393.44
2019-04-03T19:13:27.219Z,92397.80
2019-04-03T19:15:55.655Z,92408.71
2019-04-03T19:18:24.178Z,92406.28
2019-04-03T19:20:52.773Z,92401.70
2019-04-03T19:23:21.230Z,92405.00
2019-04-03T19:25:49.662Z,92400.30
2019-04-03T19:28:18.118Z,92394.75
2019-04-03T19:30:46.747Z,92390.95
2019-04-03T19:33:15.261Z,92387.91
2019-04-03T19:35:43.786Z,92395.16
2019-04-03T19:38:13.379Z,92392.61
2019-04-03T19:40:42.048Z,92400.71
2019-04-03T19:43:10.521Z,92397.41
2019-04-03T19:45:38.970Z,92391.44
2019-04-03T19:48:07.513Z,92392.63
2019-04-03T19:50:36.103Z,92383.39
2019-04-03T19:53:04.680Z,92386.51
2019-04-03T19:55:33.210Z,92388.12
2019-04-03T19:58:01.868Z,92380.11
2019-04-03T20:00:30.300Z,92382.20
2019-04-03T20:02:58.892Z,92387.10
2019-04-03T20:05:27.366Z,92379.04
2019-04-03T20:07:58.718Z,92375.51
2019-04-03T20:10:26.057Z,92361.59
2019-04-03T20:12:54.593Z,92368.27
2019-04-03T20:15:23.403Z,92363.52
2019-04-03T20:17:54.511Z,92365.31
2019-04-03T20:20:22.073Z,92373.45
2019-04-03T20:22:50.491Z,92373.54
2019-04-03T20:25:19.025Z,92371.58
2019-04-03T20:27:51.382Z,92367.27
2019-04-03T20:30:17.805Z,92367.27
2019-04-03T20:32:46.311Z,92368.38
2019-04-03T20:35:18.047Z,92368.46
2019-04-03T20:37:44.986Z,92367.16
2019-04-03T20:40:13.704Z,92365.30
2019-04-03T20:42:42.188Z,92370.89
2019-04-03T20:45:10.958Z,92372.42
2019-04-03T20:47:39.451Z,92381.61
2019-04-03T20:50:08.170Z,92383.21
2019-04-03T20:52:36.651Z,92372.96
2019-04-03T20:55:06.825Z,92383.81
2019-04-03T20:57:35.310Z,92386.05
2019-04-03T21:00:08.757Z,92385.14
2019-04-03T21:02:37.184Z,92388.30
2019-04-03T21:05:07.932Z,92376.31
2019-04-03T21:07:36.589Z,92365.48
2019-04-03T21:10:07.335Z,92362.41
2019-04-03T21:12:36.379Z,92364.10
2019-04-03T21:15:08.687Z,92373.83
2019-04-03T21:17:36.002Z,92376.55
2019-04-03T21:20:06.893Z,92379.15
2019-04-03T21:22:35.437Z,92376.16
2019-04-03T21:25:05.972Z,92379.69
2019-04-03T21:27:34.776Z,92376.66
2019-04-03T21:30:04.498Z,92377.45
2019-04-03T21:32:33.043Z,92378.02
2019-04-03T21:35:03.993Z,92373.05
2019-04-03T21:37:31.778Z,92374.83
2019-04-03T21:40:03.236Z,92356.43
2019-04-03T21:42:30.443Z,92363.27
2019-04-03T21:44:58.881Z,92364.59
2019-04-03T21:47:27.372Z,92359.31
2019-04-03T21:49:55.780Z,92368.64
2019-04-03T21:52:24.233Z,92375.61
2019-04-03T21:54:52.715Z,92369.68
2019-04-03T21:57:21.127Z,92359.20
2019-04-03T21:59:49.665Z,92359.69
2019-04-03T22:02:18.224Z,92356.25
2019-04-03T22:04:46.652Z,92347.28
2019-04-03T22:07:15.121Z,92348.59
2019-04-03T22:09:43.537Z,92354.34
2019-04-03T22:12:11.974Z,92356.27
2019-04-03T22:14:40.967Z,92349.30
2019-04-03T22:17:10.577Z,92351.27
2019-04-03T22:19:39.014Z,92343.88
2019-04-03T22:22:07.521Z,92349.77
2019-04-03T22:24:37.806Z,92351.91
2019-04-03T22:27:06.376Z,92349.45
2019-04-03T22:29:34.795Z,92355.88
2019-04-03T22:32:03.538Z,92356.69
2019-04-03T22:34:31.961Z,92333.12
2019-04-03T22:37:03.855Z,92344.58
2019-04-03T22:39:30.686Z,92335.19
2019-04-03T22:41:59.162Z,92335.50
2019-04-03T22:44:27.642Z,92337.19
2019-04-03T22:46:56.103Z,92335.94
2019-04-03T22:49:24.511Z,92328.49
2019-04-03T22:51:53.104Z,92319.89
2019-04-03T22:54:21.573Z,92317.66
2019-04-03T22:56:50.041Z,92312.40
2019-04-03T22:59:18.753Z,92304.56
2019-04-03T23:01:47.167Z,92304.69
2019-04-03T23:04:15.662Z,92307.16
2019-04-03T23:06:44.199Z,92308.49
2019-04-03T23:09:12.625Z,92299.18
2019-04-03T23:11:41.038Z,92285.65
2019-04-03T23:14:09.493Z,92268.12
2019-04-03T23:16:37.975Z,92278.40
2019-04-03T23:19:06.401Z,92276.94
2019-04-03T23:21:34.861Z,92267.38
2019-04-03T23:24:03.378Z,92261.97
2019-04-03T23:26:32.823Z,92268.92
2019-04-03T23:29:04.786Z,92258.32
2019-04-03T23:31:31.614Z,92257.73
2019-04-03T23:34:00.105Z,92262.25
2019-04-03T23:36:28.544Z,92260.17
2019-04-03T23:38:57.155Z,92240.89
2019-04-03T23:41:25.613Z,92247.21
2019-04-03T23:43:54.049Z,92227.73
2019-04-03T23:46:22.470Z,92216.41
2019-04-03T23:48:50.884Z,92217.81
2019-04-03T23:51:23.548Z,92224.83
2019-04-03T23:53:49.597Z,92233.61
2019-04-03T23:56:18.046Z,92242.94
2019-04-03T23:58:46.456Z,92244.11
